sensor_id;sensor_type;location;lat;lon;timestamp;temperature;humidity
64705;DHT22;51131;52.298;13.686;2023-07-24T00:00:09;21.30;74.40
64705;DHT22;51131;52.298;13.686;2023-07-24T00:02:36;21.30;74.30
64705;DHT22;51131;52.298;13.686;2023-07-24T00:05:03;21.80;74.80
64705;DHT22;51131;52.298;13.686;2023-07-24T00:07:30;21.30;74.30
64705;DHT22;51131;52.298;13.686;2023-07-24T00:09:56;21.20;74.20
64705;DHT22;51131;52.298;13.686;2023-07-24T00:12:23;21.50;74.60
64705;DHT22;51131;52.298;13.686;2023-07-24T00:14:51;21.70;74.80
64705;DHT22;51131;52.298;13.686;2023-07-24T00:17:18;21.40;74.60
64705;DHT22;51131;52.298;13.686;2023-07-24T00:19:44;21.30;74.40
64705;DHT22;51131;52.298;13.686;2023-07-24T00:22:11;21.30;74.40
64705;DHT22;51131;52.298;13.686;2023-07-24T00:24:38;21.30;74.40
64705;DHT22;51131;52.298;13.686;2023-07-24T00:27:04;21.30;74.50
64705;DHT22;51131;52.298;13.686;2023-07-24T00:29:32;21.30;74.40
64705;DHT22;51131;52.298;13.686;2023-07-24T00:31:58;21.30;74.30
64705;DHT22;51131;52.298;13.686;2023-07-24T00:34:25;21.30;74.30
64705;DHT22;51131;52.298;13.686;2023-07-24T00:36:55;21.30;74.40
64705;DHT22;51131;52.298;13.686;2023-07-24T00:39:21;21.60;74.70
64705;DHT22;51131;52.298;13.686;2023-07-24T00:41:48;21.40;74.50
64705;DHT22;51131;52.298;13.686;2023-07-24T00:44:15;21.30;74.40
64705;DHT22;51131;52.298;13.686;2023-07-24T00:46:41;21.20;74.30
64705;DHT22;51131;52.298;13.686;2023-07-24T00:49:08;21.30;74.40
64705;DHT22;51131;52.298;13.686;2023-07-24T00:51:35;21.20;74.30
64705;DHT22;51131;52.298;13.686;2023-07-24T00:54:02;21.20;74.30
64705;DHT22;51131;52.298;13.686;2023-07-24T00:56:29;21.20;74.40
64705;DHT22;51131;52.298;13.686;2023-07-24T00:58:57;21.60;74.70
64705;DHT22;51131;52.298;13.686;2023-07-24T01:01:24;21.20;74.30
64705;DHT22;51131;52.298;13.686;2023-07-24T01:03:51;21.20;74.40
64705;DHT22;51131;52.298;13.686;2023-07-24T01:06:18;21.20;74.40
64705;DHT22;51131;52.298;13.686;2023-07-24T01:08:45;21.20;74.50
64705;DHT22;51131;52.298;13.686;2023-07-24T01:11:14;21.40;74.60
64705;DHT22;51131;52.298;13.686;2023-07-24T01:13:44;21.20;74.40
64705;DHT22;51131;52.298;13.686;2023-07-24T01:16:17;21.20;74.50
64705;DHT22;51131;52.298;13.686;2023-07-24T01:18:45;21.20;74.40
64705;DHT22;51131;52.298;13.686;2023-07-24T01:21:12;21.30;74.60
64705;DHT22;51131;52.298;13.686;2023-07-24T01:24:03;21.40;74.70
64705;DHT22;51131;52.298;13.686;2023-07-24T01:26:35;21.20;74.70
64705;DHT22;51131;52.298;13.686;2023-07-24T01:29:02;21.40;74.80
64705;DHT22;51131;52.298;13.686;2023-07-24T01:31:28;21.40;74.80
64705;DHT22;51131;52.298;13.686;2023-07-24T01:33:55;21.20;74.70
64705;DHT22;51131;52.298;13.686;2023-07-24T01:36:22;21.20;74.70
64705;DHT22;51131;52.298;13.686;2023-07-24T01:38:49;21.70;75.20
64705;DHT22;51131;52.298;13.686;2023-07-24T01:41:16;21.20;74.70
64705;DHT22;51131;52.298;13.686;2023-07-24T01:43:43;21.20;74.70
64705;DHT22;51131;52.298;13.686;2023-07-24T01:46:10;21.20;74.70
64705;DHT22;51131;52.298;13.686;2023-07-24T01:48:36;21.50;75.10
64705;DHT22;51131;52.298;13.686;2023-07-24T01:51:03;21.20;74.80
64705;DHT22;51131;52.298;13.686;2023-07-24T01:53:30;21.30;74.90
64705;DHT22;51131;52.298;13.686;2023-07-24T01:55:57;21.20;74.80
64705;DHT22;51131;52.298;13.686;2023-07-24T01:58:24;21.20;74.90
64705;DHT22;51131;52.298;13.686;2023-07-24T02:00:51;21.20;74.90
64705;DHT22;51131;52.298;13.686;2023-07-24T02:03:17;21.40;74.90
64705;DHT22;51131;52.298;13.686;2023-07-24T02:05:48;21.20;74.90
64705;DHT22;51131;52.298;13.686;2023-07-24T02:08:15;21.20;74.90
64705;DHT22;51131;52.298;13.686;2023-07-24T02:10:41;21.30;75.10
64705;DHT22;51131;52.298;13.686;2023-07-24T02:13:08;21.20;75.00
64705;DHT22;51131;52.298;13.686;2023-07-24T02:15:35;21.50;75.40
64705;DHT22;51131;52.298;13.686;2023-07-24T02:18:02;21.20;75.10
64705;DHT22;51131;52.298;13.686;2023-07-24T02:20:29;21.50;75.40
64705;DHT22;51131;52.298;13.686;2023-07-24T02:22:55;21.70;75.60
64705;DHT22;51131;52.298;13.686;2023-07-24T02:25:22;21.30;75.20
64705;DHT22;51131;52.298;13.686;2023-07-24T02:27:49;21.40;75.30
64705;DHT22;51131;52.298;13.686;2023-07-24T02:30:15;21.20;75.10
64705;DHT22;51131;52.298;13.686;2023-07-24T02:32:42;21.10;75.00
64705;DHT22;51131;52.298;13.686;2023-07-24T02:35:09;21.20;75.20
64705;DHT22;51131;52.298;13.686;2023-07-24T02:37:35;21.20;75.20
64705;DHT22;51131;52.298;13.686;2023-07-24T02:40:02;21.20;75.20
64705;DHT22;51131;52.298;13.686;2023-07-24T02:42:29;21.00;75.10
64705;DHT22;51131;52.298;13.686;2023-07-24T02:44:55;21.10;75.20
64705;DHT22;51131;52.298;13.686;2023-07-24T02:47:22;21.20;75.30
64705;DHT22;51131;52.298;13.686;2023-07-24T02:49:49;21.20;75.20
64705;DHT22;51131;52.298;13.686;2023-07-24T02:52:15;21.20;75.30
64705;DHT22;51131;52.298;13.686;2023-07-24T02:54:42;21.20;75.20
64705;DHT22;51131;52.298;13.686;2023-07-24T02:57:09;21.10;75.30
64705;DHT22;51131;52.298;13.686;2023-07-24T02:59:35;21.10;75.40
64705;DHT22;51131;52.298;13.686;2023-07-24T03:02:02;21.10;75.20
64705;DHT22;51131;52.298;13.686;2023-07-24T03:04:29;21.10;75.30
64705;DHT22;51131;52.298;13.686;2023-07-24T03:06:55;21.30;75.60
64705;DHT22;51131;52.298;13.686;2023-07-24T03:09:22;21.10;75.30
64705;DHT22;51131;52.298;13.686;2023-07-24T03:11:49;21.10;75.40
64705;DHT22;51131;52.298;13.686;2023-07-24T03:14:15;21.10;75.30
64705;DHT22;51131;52.298;13.686;2023-07-24T03:16:42;21.10;75.40
64705;DHT22;51131;52.298;13.686;2023-07-24T03:19:08;21.10;75.40
64705;DHT22;51131;52.298;13.686;2023-07-24T03:21:35;21.20;75.70
64705;DHT22;51131;52.298;13.686;2023-07-24T03:24:02;21.20;75.60
64705;DHT22;51131;52.298;13.686;2023-07-24T03:26:28;21.10;75.60
64705;DHT22;51131;52.298;13.686;2023-07-24T03:28:56;21.20;75.90
64705;DHT22;51131;52.298;13.686;2023-07-24T03:31:22;21.10;75.80
64705;DHT22;51131;52.298;13.686;2023-07-24T03:33:49;21.10;75.80
64705;DHT22;51131;52.298;13.686;2023-07-24T03:36:16;21.10;75.80
64705;DHT22;51131;52.298;13.686;2023-07-24T03:38:42;21.20;76.00
64705;DHT22;51131;52.298;13.686;2023-07-24T03:41:09;21.30;76.00
64705;DHT22;51131;52.298;13.686;2023-07-24T03:43:36;21.10;76.00
64705;DHT22;51131;52.298;13.686;2023-07-24T03:46:02;21.10;76.00
64705;DHT22;51131;52.298;13.686;2023-07-24T03:48:29;21.10;76.10
64705;DHT22;51131;52.298;13.686;2023-07-24T03:50:58;21.10;76.00
64705;DHT22;51131;52.298;13.686;2023-07-24T03:53:28;21.10;76.20
64705;DHT22;51131;52.298;13.686;2023-07-24T03:55:58;21.10;76.10
64705;DHT22;51131;52.298;13.686;2023-07-24T03:58:25;21.20;76.30
64705;DHT22;51131;52.298;13.686;2023-07-24T04:00:51;21.10;76.20
64705;DHT22;51131;52.298;13.686;2023-07-24T04:03:18;21.30;76.50
64705;DHT22;51131;52.298;13.686;2023-07-24T04:05:45;21.30;76.60
64705;DHT22;51131;52.298;13.686;2023-07-24T04:08:11;21.10;76.10
64705;DHT22;51131;52.298;13.686;2023-07-24T04:10:38;21.10;76.20
64705;DHT22;51131;52.298;13.686;2023-07-24T04:13:05;21.10;76.40
64705;DHT22;51131;52.298;13.686;2023-07-24T04:15:31;21.20;76.40
64705;DHT22;51131;52.298;13.686;2023-07-24T04:17:58;21.10;76.30
64705;DHT22;51131;52.298;13.686;2023-07-24T04:20:25;21.00;76.20
64705;DHT22;51131;52.298;13.686;2023-07-24T04:22:51;21.10;76.50
64705;DHT22;51131;52.298;13.686;2023-07-24T04:25:18;21.10;76.30
64705;DHT22;51131;52.298;13.686;2023-07-24T04:27:44;21.10;76.50
64705;DHT22;51131;52.298;13.686;2023-07-24T04:30:11;21.10;76.30
64705;DHT22;51131;52.298;13.686;2023-07-24T04:32:38;21.10;76.50
64705;DHT22;51131;52.298;13.686;2023-07-24T04:35:04;21.30;76.70
64705;DHT22;51131;52.298;13.686;2023-07-24T04:37:31;21.10;76.50
64705;DHT22;51131;52.298;13.686;2023-07-24T04:39:58;21.20;76.80
64705;DHT22;51131;52.298;13.686;2023-07-24T04:42:24;21.10;76.60
64705;DHT22;51131;52.298;13.686;2023-07-24T04:44:51;21.10;76.60
64705;DHT22;51131;52.298;13.686;2023-07-24T04:47:18;21.10;76.60
64705;DHT22;51131;52.298;13.686;2023-07-24T04:49:45;21.10;76.80
64705;DHT22;51131;52.298;13.686;2023-07-24T04:52:11;21.10;76.80
64705;DHT22;51131;52.298;13.686;2023-07-24T04:54:38;21.10;76.90
64705;DHT22;51131;52.298;13.686;2023-07-24T04:57:05;21.10;77.40
64705;DHT22;51131;52.298;13.686;2023-07-24T04:59:31;21.10;76.80
64705;DHT22;51131;52.298;13.686;2023-07-24T05:01:58;21.40;77.10
64705;DHT22;51131;52.298;13.686;2023-07-24T05:04:25;21.10;76.80
64705;DHT22;51131;52.298;13.686;2023-07-24T05:06:51;21.10;76.80
64705;DHT22;51131;52.298;13.686;2023-07-24T05:09:18;21.10;76.70
64705;DHT22;51131;52.298;13.686;2023-07-24T05:11:45;21.10;76.70
64705;DHT22;51131;52.298;13.686;2023-07-24T05:14:11;21.10;76.80
64705;DHT22;51131;52.298;13.686;2023-07-24T05:16:38;21.10;76.90
64705;DHT22;51131;52.298;13.686;2023-07-24T05:19:05;21.10;76.80
64705;DHT22;51131;52.298;13.686;2023-07-24T05:21:31;21.10;76.80
64705;DHT22;51131;52.298;13.686;2023-07-24T05:23:58;21.10;77.00
64705;DHT22;51131;52.298;13.686;2023-07-24T05:26:25;21.90;77.70
64705;DHT22;51131;52.298;13.686;2023-07-24T05:28:51;21.20;77.00
64705;DHT22;51131;52.298;13.686;2023-07-24T05:31:19;21.10;76.90
64705;DHT22;51131;52.298;13.686;2023-07-24T05:33:46;21.10;77.00
64705;DHT22;51131;52.298;13.686;2023-07-24T05:36:12;21.10;77.00
64705;DHT22;51131;52.298;13.686;2023-07-24T05:38:39;21.00;77.00
64705;DHT22;51131;52.298;13.686;2023-07-24T05:41:06;21.10;76.90
64705;DHT22;51131;52.298;13.686;2023-07-24T05:43:32;21.00;76.70
64705;DHT22;51131;52.298;13.686;2023-07-24T05:45:59;21.10;76.90
64705;DHT22;51131;52.298;13.686;2023-07-24T05:48:25;21.20;77.20
64705;DHT22;51131;52.298;13.686;2023-07-24T05:50:52;21.10;77.20
64705;DHT22;51131;52.298;13.686;2023-07-24T05:53:19;21.10;77.30
64705;DHT22;51131;52.298;13.686;2023-07-24T05:55:46;21.10;77.20
64705;DHT22;51131;52.298;13.686;2023-07-24T05:58:12;21.10;77.20
64705;DHT22;51131;52.298;13.686;2023-07-24T06:00:39;21.10;77.80
64705;DHT22;51131;52.298;13.686;2023-07-24T06:03:06;21.10;77.20
64705;DHT22;51131;52.298;13.686;2023-07-24T06:05:34;21.10;77.40
64705;DHT22;51131;52.298;13.686;2023-07-24T06:08:01;21.10;77.20
64705;DHT22;51131;52.298;13.686;2023-07-24T06:10:27;21.10;77.40
64705;DHT22;51131;52.298;13.686;2023-07-24T06:12:54;21.10;77.30
64705;DHT22;51131;52.298;13.686;2023-07-24T06:15:21;21.10;77.30
64705;DHT22;51131;52.298;13.686;2023-07-24T06:17:47;21.10;77.10
64705;DHT22;51131;52.298;13.686;2023-07-24T06:20:18;21.20;77.40
64705;DHT22;51131;52.298;13.686;2023-07-24T06:22:45;21.10;77.20
64705;DHT22;51131;52.298;13.686;2023-07-24T06:25:12;21.20;77.50
64705;DHT22;51131;52.298;13.686;2023-07-24T06:27:38;21.10;77.50
64705;DHT22;51131;52.298;13.686;2023-07-24T06:30:05;21.20;77.70
64705;DHT22;51131;52.298;13.686;2023-07-24T06:32:42;21.10;77.40
64705;DHT22;51131;52.298;13.686;2023-07-24T06:35:09;21.10;77.40
64705;DHT22;51131;52.298;13.686;2023-07-24T06:37:35;21.20;77.50
64705;DHT22;51131;52.298;13.686;2023-07-24T06:40:02;21.10;77.40
64705;DHT22;51131;52.298;13.686;2023-07-24T06:42:29;21.10;77.40
64705;DHT22;51131;52.298;13.686;2023-07-24T06:44:56;21.20;77.60
64705;DHT22;51131;52.298;13.686;2023-07-24T06:47:22;21.10;77.40
64705;DHT22;51131;52.298;13.686;2023-07-24T06:49:49;21.10;77.60
64705;DHT22;51131;52.298;13.686;2023-07-24T06:52:16;21.10;77.40
64705;DHT22;51131;52.298;13.686;2023-07-24T06:54:42;21.10;77.60
64705;DHT22;51131;52.298;13.686;2023-07-24T06:57:09;21.10;77.60
64705;DHT22;51131;52.298;13.686;2023-07-24T06:59:36;21.10;77.60
64705;DHT22;51131;52.298;13.686;2023-07-24T07:02:03;21.10;77.70
64705;DHT22;51131;52.298;13.686;2023-07-24T07:04:30;21.10;77.60
64705;DHT22;51131;52.298;13.686;2023-07-24T07:06:57;21.20;77.60
64705;DHT22;51131;52.298;13.686;2023-07-24T07:09:23;21.20;77.40
64705;DHT22;51131;52.298;13.686;2023-07-24T07:11:50;21.20;77.50
64705;DHT22;51131;52.298;13.686;2023-07-24T07:14:17;21.20;77.40
64705;DHT22;51131;52.298;13.686;2023-07-24T07:16:43;21.20;77.60
64705;DHT22;51131;52.298;13.686;2023-07-24T07:19:10;21.30;77.40
64705;DHT22;51131;52.298;13.686;2023-07-24T07:21:37;21.10;77.30
64705;DHT22;51131;52.298;13.686;2023-07-24T07:24:04;21.20;77.50
64705;DHT22;51131;52.298;13.686;2023-07-24T07:26:31;21.10;77.40
64705;DHT22;51131;52.298;13.686;2023-07-24T07:28:58;21.10;77.60
64705;DHT22;51131;52.298;13.686;2023-07-24T07:31:24;21.10;77.50
64705;DHT22;51131;52.298;13.686;2023-07-24T07:33:51;21.10;78.20
64705;DHT22;51131;52.298;13.686;2023-07-24T07:36:18;21.10;77.40
64705;DHT22;51131;52.298;13.686;2023-07-24T07:38:44;21.10;77.40
64705;DHT22;51131;52.298;13.686;2023-07-24T07:41:11;21.10;77.60
64705;DHT22;51131;52.298;13.686;2023-07-24T07:43:38;21.10;77.70
64705;DHT22;51131;52.298;13.686;2023-07-24T07:46:05;21.10;77.60
64705;DHT22;51131;52.298;13.686;2023-07-24T07:48:32;21.10;77.60
64705;DHT22;51131;52.298;13.686;2023-07-24T07:50:59;21.10;77.60
64705;DHT22;51131;52.298;13.686;2023-07-24T07:53:26;21.10;77.60
64705;DHT22;51131;52.298;13.686;2023-07-24T07:55:56;21.10;77.90
64705;DHT22;51131;52.298;13.686;2023-07-24T07:58:23;21.10;77.80
64705;DHT22;51131;52.298;13.686;2023-07-24T08:00:50;21.10;77.80
64705;DHT22;51131;52.298;13.686;2023-07-24T08:03:17;21.10;77.70
64705;DHT22;51131;52.298;13.686;2023-07-24T08:05:44;21.10;77.60
64705;DHT22;51131;52.298;13.686;2023-07-24T08:08:10;21.10;77.80
64705;DHT22;51131;52.298;13.686;2023-07-24T08:10:37;21.40;78.00
64705;DHT22;51131;52.298;13.686;2023-07-24T08:13:04;21.10;77.90
64705;DHT22;51131;52.298;13.686;2023-07-24T08:15:35;21.10;77.80
64705;DHT22;51131;52.298;13.686;2023-07-24T08:18:02;21.00;77.80
64705;DHT22;51131;52.298;13.686;2023-07-24T08:20:29;21.10;77.90
64705;DHT22;51131;52.298;13.686;2023-07-24T08:22:56;21.10;77.90
64705;DHT22;51131;52.298;13.686;2023-07-24T08:25:23;21.10;78.00
64705;DHT22;51131;52.298;13.686;2023-07-24T08:27:50;21.10;77.90
64705;DHT22;51131;52.298;13.686;2023-07-24T08:30:31;21.10;77.70
64705;DHT22;51131;52.298;13.686;2023-07-24T08:32:58;21.40;77.90
64705;DHT22;51131;52.298;13.686;2023-07-24T08:35:26;20.80;77.70
64705;DHT22;51131;52.298;13.686;2023-07-24T08:37:53;21.10;77.50
64705;DHT22;51131;52.298;13.686;2023-07-24T08:40:20;21.30;77.80
64705;DHT22;51131;52.298;13.686;2023-07-24T08:42:49;21.10;77.50
64705;DHT22;51131;52.298;13.686;2023-07-24T08:45:16;21.10;77.60
64705;DHT22;51131;52.298;13.686;2023-07-24T08:47:44;21.10;77.90
64705;DHT22;51131;52.298;13.686;2023-07-24T08:50:11;21.10;77.80
64705;DHT22;51131;52.298;13.686;2023-07-24T08:52:39;21.10;78.00
64705;DHT22;51131;52.298;13.686;2023-07-24T08:55:06;21.50;78.60
64705;DHT22;51131;52.298;13.686;2023-07-24T08:57:34;21.10;78.20
64705;DHT22;51131;52.298;13.686;2023-07-24T09:00:01;21.20;78.20
64705;DHT22;51131;52.298;13.686;2023-07-24T09:02:32;21.00;78.10
64705;DHT22;51131;52.298;13.686;2023-07-24T09:04:59;21.10;78.30
64705;DHT22;51131;52.298;13.686;2023-07-24T09:07:26;21.60;78.40
64705;DHT22;51131;52.298;13.686;2023-07-24T09:09:53;21.10;78.00
64705;DHT22;51131;52.298;13.686;2023-07-24T09:12:21;21.10;77.90
64705;DHT22;51131;52.298;13.686;2023-07-24T09:14:48;21.40;78.80
64705;DHT22;51131;52.298;13.686;2023-07-24T09:17:15;21.20;77.40
64705;DHT22;51131;52.298;13.686;2023-07-24T09:19:41;21.50;76.80
64705;DHT22;51131;52.298;13.686;2023-07-24T09:22:10;22.10;76.10
64705;DHT22;51131;52.298;13.686;2023-07-24T09:24:37;22.00;76.70
64705;DHT22;51131;52.298;13.686;2023-07-24T09:27:05;22.10;76.80
64705;DHT22;51131;52.298;13.686;2023-07-24T09:29:32;21.70;76.20
64705;DHT22;51131;52.298;13.686;2023-07-24T09:31:59;21.80;75.90
64705;DHT22;51131;52.298;13.686;2023-07-24T09:34:26;21.20;75.20
64705;DHT22;51131;52.298;13.686;2023-07-24T09:36:54;21.80;75.50
64705;DHT22;51131;52.298;13.686;2023-07-24T09:39:27;21.90;75.00
64705;DHT22;51131;52.298;13.686;2023-07-24T09:42:02;21.90;75.10
64705;DHT22;51131;52.298;13.686;2023-07-24T09:44:30;21.90;74.90
64705;DHT22;51131;52.298;13.686;2023-07-24T09:46:57;21.90;75.00
64705;DHT22;51131;52.298;13.686;2023-07-24T09:49:44;21.90;75.10
64705;DHT22;51131;52.298;13.686;2023-07-24T09:52:11;22.30;75.40
64705;DHT22;51131;52.298;13.686;2023-07-24T09:54:42;22.00;75.10
64705;DHT22;51131;52.298;13.686;2023-07-24T09:57:11;22.50;75.70
64705;DHT22;51131;52.298;13.686;2023-07-24T09:59:48;22.10;75.00
64705;DHT22;51131;52.298;13.686;2023-07-24T10:02:16;22.00;74.70
64705;DHT22;51131;52.298;13.686;2023-07-24T10:04:44;22.00;74.60
64705;DHT22;51131;52.298;13.686;2023-07-24T10:07:11;22.20;75.10
64705;DHT22;51131;52.298;13.686;2023-07-24T10:09:39;21.90;74.50
64705;DHT22;51131;52.298;13.686;2023-07-24T10:12:06;22.30;75.20
64705;DHT22;51131;52.298;13.686;2023-07-24T10:14:33;21.80;74.70
64705;DHT22;51131;52.298;13.686;2023-07-24T10:17:00;21.90;75.00
64705;DHT22;51131;52.298;13.686;2023-07-24T10:19:38;21.90;75.20
64705;DHT22;51131;52.298;13.686;2023-07-24T10:22:06;21.90;74.90
64705;DHT22;51131;52.298;13.686;2023-07-24T10:24:33;21.90;74.10
64705;DHT22;51131;52.298;13.686;2023-07-24T10:27:07;22.00;75.10
64705;DHT22;51131;52.298;13.686;2023-07-24T10:29:35;21.90;74.50
64705;DHT22;51131;52.298;13.686;2023-07-24T10:32:03;22.70;75.40
64705;DHT22;51131;52.298;13.686;2023-07-24T10:34:40;21.90;74.90
64705;DHT22;51131;52.298;13.686;2023-07-24T10:37:07;21.90;74.90
64705;DHT22;51131;52.298;13.686;2023-07-24T10:39:38;21.90;74.60
64705;DHT22;51131;52.298;13.686;2023-07-24T10:42:07;21.90;74.20
64705;DHT22;51131;52.298;13.686;2023-07-24T10:44:33;21.90;74.40
64705;DHT22;51131;52.298;13.686;2023-07-24T10:47:00;21.90;74.30
64705;DHT22;51131;52.298;13.686;2023-07-24T10:49:27;21.90;74.50
64705;DHT22;51131;52.298;13.686;2023-07-24T10:51:55;21.90;74.10
64705;DHT22;51131;52.298;13.686;2023-07-24T10:54:22;21.90;74.60
64705;DHT22;51131;52.298;13.686;2023-07-24T10:56:49;21.90;74.50
64705;DHT22;51131;52.298;13.686;2023-07-24T10:59:17;21.90;74.40
64705;DHT22;51131;52.298;13.686;2023-07-24T11:01:44;21.90;73.80
64705;DHT22;51131;52.298;13.686;2023-07-24T11:04:11;22.30;74.80
64705;DHT22;51131;52.298;13.686;2023-07-24T11:06:39;21.90;75.00
64705;DHT22;51131;52.298;13.686;2023-07-24T11:09:07;22.00;75.00
64705;DHT22;51131;52.298;13.686;2023-07-24T11:11:35;21.80;75.20
64705;DHT22;51131;52.298;13.686;2023-07-24T11:14:03;21.90;75.40
64705;DHT22;51131;52.298;13.686;2023-07-24T11:16:30;22.20;75.50
64705;DHT22;51131;52.298;13.686;2023-07-24T11:18:58;21.80;75.40
64705;DHT22;51131;52.298;13.686;2023-07-24T11:21:26;21.80;75.00
64705;DHT22;51131;52.298;13.686;2023-07-24T11:23:53;21.80;75.90
64705;DHT22;51131;52.298;13.686;2023-07-24T11:26:23;21.70;75.30
64705;DHT22;51131;52.298;13.686;2023-07-24T11:28:50;21.60;75.10
64705;DHT22;51131;52.298;13.686;2023-07-24T11:31:18;21.80;75.70
64705;DHT22;51131;52.298;13.686;2023-07-24T11:33:48;21.80;75.40
64705;DHT22;51131;52.298;13.686;2023-07-24T11:36:15;21.80;75.70
64705;DHT22;51131;52.298;13.686;2023-07-24T11:38:44;22.30;75.60
64705;DHT22;51131;52.298;13.686;2023-07-24T11:41:11;21.80;75.60
64705;DHT22;51131;52.298;13.686;2023-07-24T11:43:44;21.80;74.90
64705;DHT22;51131;52.298;13.686;2023-07-24T11:46:12;22.30;75.30
64705;DHT22;51131;52.298;13.686;2023-07-24T11:48:48;21.80;75.30
64705;DHT22;51131;52.298;13.686;2023-07-24T11:51:15;21.90;74.90
64705;DHT22;51131;52.298;13.686;2023-07-24T11:53:42;21.80;74.40
64705;DHT22;51131;52.298;13.686;2023-07-24T11:56:13;21.80;75.50
64705;DHT22;51131;52.298;13.686;2023-07-24T11:58:39;21.80;75.40
64705;DHT22;51131;52.298;13.686;2023-07-24T12:01:06;22.00;75.50
64705;DHT22;51131;52.298;13.686;2023-07-24T12:03:33;21.60;75.40
64705;DHT22;51131;52.298;13.686;2023-07-24T12:06:01;21.70;75.60
64705;DHT22;51131;52.298;13.686;2023-07-24T12:08:32;21.70;75.90
64705;DHT22;51131;52.298;13.686;2023-07-24T12:11:00;21.70;75.40
64705;DHT22;51131;52.298;13.686;2023-07-24T12:13:27;21.90;75.60
64705;DHT22;51131;52.298;13.686;2023-07-24T12:15:55;21.80;74.60
64705;DHT22;51131;52.298;13.686;2023-07-24T12:18:23;21.80;75.10
64705;DHT22;51131;52.298;13.686;2023-07-24T12:20:49;22.10;74.50
64705;DHT22;51131;52.298;13.686;2023-07-24T12:23:16;21.80;74.50
64705;DHT22;51131;52.298;13.686;2023-07-24T12:25:43;21.70;75.10
64705;DHT22;51131;52.298;13.686;2023-07-24T12:28:11;22.10;75.60
64705;DHT22;51131;52.298;13.686;2023-07-24T12:30:38;21.80;75.80
64705;DHT22;51131;52.298;13.686;2023-07-24T12:33:05;22.20;76.40
64705;DHT22;51131;52.298;13.686;2023-07-24T12:35:33;21.70;75.50
64705;DHT22;51131;52.298;13.686;2023-07-24T12:38:00;21.70;75.70
64705;DHT22;51131;52.298;13.686;2023-07-24T12:40:27;21.70;76.30
64705;DHT22;51131;52.298;13.686;2023-07-24T12:42:54;21.60;76.00
64705;DHT22;51131;52.298;13.686;2023-07-24T12:45:21;21.80;75.80
64705;DHT22;51131;52.298;13.686;2023-07-24T12:47:48;21.60;75.80
64705;DHT22;51131;52.298;13.686;2023-07-24T12:50:16;21.60;75.90
64705;DHT22;51131;52.298;13.686;2023-07-24T12:52:44;22.00;76.60
64705;DHT22;51131;52.298;13.686;2023-07-24T12:55:11;21.60;76.10
64705;DHT22;51131;52.298;13.686;2023-07-24T12:57:38;22.10;76.60
64705;DHT22;51131;52.298;13.686;2023-07-24T13:00:05;21.60;75.80
64705;DHT22;51131;52.298;13.686;2023-07-24T13:02:32;21.60;76.00
64705;DHT22;51131;52.298;13.686;2023-07-24T13:04:59;21.60;76.10
64705;DHT22;51131;52.298;13.686;2023-07-24T13:07:27;21.60;75.80
64705;DHT22;51131;52.298;13.686;2023-07-24T13:09:55;22.20;76.50
64705;DHT22;51131;52.298;13.686;2023-07-24T13:12:22;21.60;75.90
64705;DHT22;51131;52.298;13.686;2023-07-24T13:14:48;21.80;76.40
64705;DHT22;51131;52.298;13.686;2023-07-24T13:17:16;21.60;76.00
64705;DHT22;51131;52.298;13.686;2023-07-24T13:19:42;21.60;76.00
64705;DHT22;51131;52.298;13.686;2023-07-24T13:22:09;21.60;76.00
64705;DHT22;51131;52.298;13.686;2023-07-24T13:24:37;21.60;76.10
64705;DHT22;51131;52.298;13.686;2023-07-24T13:27:04;21.70;76.20
64705;DHT22;51131;52.298;13.686;2023-07-24T13:29:31;21.60;75.90
64705;DHT22;51131;52.298;13.686;2023-07-24T13:31:58;21.60;76.00
64705;DHT22;51131;52.298;13.686;2023-07-24T13:34:25;22.00;76.60
64705;DHT22;51131;52.298;13.686;2023-07-24T13:36:52;21.60;76.20
64705;DHT22;51131;52.298;13.686;2023-07-24T13:39:19;21.60;76.20
64705;DHT22;51131;52.298;13.686;2023-07-24T13:41:46;21.60;76.20
64705;DHT22;51131;52.298;13.686;2023-07-24T13:44:13;21.70;76.30
64705;DHT22;51131;52.298;13.686;2023-07-24T13:46:39;21.50;76.10
64705;DHT22;51131;52.298;13.686;2023-07-24T13:49:06;21.50;76.20
64705;DHT22;51131;52.298;13.686;2023-07-24T13:51:33;21.50;76.00
64705;DHT22;51131;52.298;13.686;2023-07-24T13:54:00;21.60;76.10
64705;DHT22;51131;52.298;13.686;2023-07-24T13:56:28;21.60;76.20
64705;DHT22;51131;52.298;13.686;2023-07-24T13:58:57;21.50;76.10
64705;DHT22;51131;52.298;13.686;2023-07-24T14:01:24;21.60;76.20
64705;DHT22;51131;52.298;13.686;2023-07-24T14:03:51;21.60;76.20
64705;DHT22;51131;52.298;13.686;2023-07-24T14:06:17;21.90;76.60
64705;DHT22;51131;52.298;13.686;2023-07-24T14:08:44;21.50;76.20
64705;DHT22;51131;52.298;13.686;2023-07-24T14:11:12;21.60;76.40
64705;DHT22;51131;52.298;13.686;2023-07-24T14:13:38;21.50;76.30
64705;DHT22;51131;52.298;13.686;2023-07-24T14:16:05;21.50;76.40
64705;DHT22;51131;52.298;13.686;2023-07-24T14:18:32;22.70;77.60
64705;DHT22;51131;52.298;13.686;2023-07-24T14:20:58;21.50;76.40
64705;DHT22;51131;52.298;13.686;2023-07-24T14:23:26;21.50;76.60
64705;DHT22;51131;52.298;13.686;2023-07-24T14:25:53;21.60;76.80
64705;DHT22;51131;52.298;13.686;2023-07-24T14:28:19;21.50;76.70
64705;DHT22;51131;52.298;13.686;2023-07-24T14:30:46;21.70;77.50
64705;DHT22;51131;52.298;13.686;2023-07-24T14:33:13;21.50;76.80
64705;DHT22;51131;52.298;13.686;2023-07-24T14:35:40;21.50;76.60
64705;DHT22;51131;52.298;13.686;2023-07-24T14:38:07;21.50;77.10
64705;DHT22;51131;52.298;13.686;2023-07-24T14:40:33;21.50;77.30
64705;DHT22;51131;52.298;13.686;2023-07-24T14:43:00;21.50;78.00
64705;DHT22;51131;52.298;13.686;2023-07-24T14:45:29;21.50;78.20
64705;DHT22;51131;52.298;13.686;2023-07-24T14:47:56;21.50;78.70
64705;DHT22;51131;52.298;13.686;2023-07-24T14:50:22;21.50;78.90
64705;DHT22;51131;52.298;13.686;2023-07-24T14:52:49;21.50;78.70
64705;DHT22;51131;52.298;13.686;2023-07-24T14:55:16;21.50;78.80
64705;DHT22;51131;52.298;13.686;2023-07-24T14:57:42;21.60;79.10
64705;DHT22;51131;52.298;13.686;2023-07-24T15:00:09;21.60;79.20
64705;DHT22;51131;52.298;13.686;2023-07-24T15:02:36;21.50;79.40
64705;DHT22;51131;52.298;13.686;2023-07-24T15:05:03;21.50;78.80
64705;DHT22;51131;52.298;13.686;2023-07-24T15:07:30;21.40;78.40
64705;DHT22;51131;52.298;13.686;2023-07-24T15:09:56;21.50;78.30
64705;DHT22;51131;52.298;13.686;2023-07-24T15:12:23;21.50;78.00
64705;DHT22;51131;52.298;13.686;2023-07-24T15:14:51;21.40;77.90